createdAt,value
2022-08-21T00:00:53.723Z,18.41
2022-08-21T00:01:53.767Z,18.27
2022-08-21T00:02:53.802Z,18.24
2022-08-21T00:03:53.672Z,18.34
2022-08-21T00:04:57.318Z,18.30
2022-08-21T00:05:53.639Z,18.24
2022-08-21T00:06:53.627Z,18.23
2022-08-21T00:07:53.608Z,18.36
2022-08-21T00:08:53.587Z,18.24
2022-08-21T00:09:53.571Z,18.26
2022-08-21T00:10:53.556Z,18.18
2022-08-21T00:11:53.540Z,18.19
2022-08-21T00:12:53.526Z,18.18
2022-08-21T00:13:53.508Z,18.19
2022-08-21T00:14:54.817Z,18.13
2022-08-21T00:15:53.472Z,18.09
2022-08-21T00:16:53.457Z,18.18
2022-08-21T00:17:53.439Z,18.11
2022-08-21T00:18:53.426Z,18.11
2022-08-21T00:19:53.406Z,18.06
2022-08-21T00:20:53.386Z,18.09
2022-08-21T00:21:53.373Z,18.08
2022-08-21T00:22:53.354Z,18.06
2022-08-21T00:23:53.370Z,18.03
2022-08-21T00:24:53.351Z,18.08
2022-08-21T00:25:53.304Z,18.06
2022-08-21T00:26:53.292Z,18.11
2022-08-21T00:27:53.272Z,17.97
2022-08-21T00:28:53.257Z,18.05
2022-08-21T00:29:53.240Z,18.08
2022-08-21T00:30:53.222Z,17.98
2022-08-21T00:31:53.206Z,18.05
2022-08-21T00:32:53.188Z,18.00
2022-08-21T00:33:53.171Z,18.03
2022-08-21T00:34:53.154Z,18.00
2022-08-21T00:35:53.142Z,18.03
2022-08-21T00:36:53.122Z,18.02
2022-08-21T00:37:53.106Z,18.03
2022-08-21T00:38:53.086Z,17.98
2022-08-21T00:39:53.121Z,17.91
2022-08-21T00:40:53.053Z,17.91
2022-08-21T00:41:53.037Z,17.98
2022-08-21T00:42:53.715Z,17.95
2022-08-21T00:43:53.004Z,17.95
2022-08-21T00:44:52.987Z,17.86
2022-08-21T00:45:52.972Z,17.86
2022-08-21T00:46:52.952Z,17.82
2022-08-21T00:47:52.939Z,17.86
2022-08-21T00:48:52.920Z,17.82
2022-08-21T00:49:52.909Z,17.86
2022-08-21T00:50:52.887Z,17.76
2022-08-21T00:51:52.872Z,17.79
2022-08-21T00:52:52.853Z,17.78
2022-08-21T00:53:53.658Z,17.82
2022-08-21T00:54:52.819Z,17.84
2022-08-21T00:55:52.802Z,17.80
2022-08-21T00:56:52.784Z,17.82
2022-08-21T00:57:52.773Z,17.84
2022-08-21T00:58:53.525Z,17.84
2022-08-21T00:59:52.735Z,17.78
2022-08-21T01:00:52.758Z,17.76
2022-08-21T01:01:52.701Z,17.79
2022-08-21T01:02:52.683Z,17.76
2022-08-21T01:03:52.849Z,17.76
2022-08-21T01:04:52.648Z,17.78
2022-08-21T01:05:52.635Z,17.76
2022-08-21T01:06:52.668Z,17.82
2022-08-21T01:07:52.599Z,17.79
2022-08-21T01:08:52.583Z,17.78
2022-08-21T01:09:52.579Z,17.66
2022-08-21T01:10:54.741Z,17.65
2022-08-21T01:11:52.534Z,17.65
2022-08-21T01:12:52.516Z,17.59
2022-08-21T01:13:52.502Z,17.59
2022-08-21T01:14:52.481Z,17.54
2022-08-21T01:15:52.466Z,17.54
2022-08-21T01:16:52.450Z,17.56
2022-08-21T01:17:52.432Z,17.54
2022-08-21T01:18:52.411Z,17.53
2022-08-21T01:19:52.398Z,17.49
2022-08-21T01:20:52.380Z,17.49
2022-08-21T01:21:52.363Z,17.42
2022-08-21T01:22:52.344Z,17.47
2022-08-21T01:23:52.328Z,17.54
2022-08-21T01:24:52.311Z,17.49
2022-08-21T01:25:52.294Z,17.47
2022-08-21T01:26:52.275Z,17.46
2022-08-21T01:27:52.263Z,17.46
2022-08-21T01:28:52.243Z,17.46
2022-08-21T01:29:52.226Z,17.42
2022-08-21T01:30:52.209Z,17.47
2022-08-21T01:31:52.193Z,17.44
2022-08-21T01:32:52.176Z,17.47
2022-08-21T01:33:52.157Z,17.50
2022-08-21T01:34:52.140Z,17.52
2022-08-21T01:35:52.126Z,17.46
2022-08-21T01:36:52.107Z,17.49
2022-08-21T01:37:52.091Z,17.49
2022-08-21T01:38:52.073Z,17.56
2022-08-21T01:39:52.097Z,17.56
2022-08-21T01:40:52.037Z,17.53
2022-08-21T01:41:52.032Z,17.54
2022-08-21T01:42:52.048Z,17.54
2022-08-21T01:43:51.990Z,17.57
2022-08-21T01:44:56.121Z,17.68
2022-08-21T01:45:51.954Z,17.66
2022-08-21T01:46:51.936Z,17.65
2022-08-21T01:47:51.919Z,17.65
2022-08-21T01:48:51.905Z,17.73
2022-08-21T01:49:51.883Z,17.69
2022-08-21T01:50:56.772Z,17.65
2022-08-21T01:51:51.853Z,17.65
2022-08-21T01:52:51.835Z,17.78
2022-08-21T01:53:51.817Z,17.78
2022-08-21T01:54:55.553Z,17.79
2022-08-21T01:55:51.785Z,17.78
2022-08-21T01:56:51.765Z,17.75
2022-08-21T01:57:51.748Z,17.79
2022-08-21T01:58:51.732Z,17.73
2022-08-21T01:59:51.715Z,17.79
2022-08-21T02:00:51.745Z,17.75
2022-08-21T02:01:51.679Z,17.66
2022-08-21T02:02:51.704Z,17.72
2022-08-21T02:03:51.648Z,17.68
2022-08-21T02:04:51.630Z,17.56
2022-08-21T02:05:51.613Z,17.54
2022-08-21T02:06:51.593Z,17.56
2022-08-21T02:07:51.578Z,17.54
2022-08-21T02:08:51.580Z,17.54
2022-08-21T02:09:51.546Z,17.52
2022-08-21T02:10:51.526Z,17.52
2022-08-21T02:11:51.512Z,17.49
2022-08-21T02:12:51.514Z,17.50
2022-08-21T02:13:51.474Z,17.50
2022-08-21T02:14:51.458Z,17.49
2022-08-21T02:15:51.442Z,17.50
2022-08-21T02:16:51.423Z,17.53
2022-08-21T02:17:51.406Z,17.52
2022-08-21T02:18:51.389Z,17.54
2022-08-21T02:19:51.376Z,17.49
2022-08-21T02:20:55.675Z,17.46
2022-08-21T02:21:51.340Z,17.49
2022-08-21T02:22:51.358Z,17.49
2022-08-21T02:23:51.304Z,17.49
2022-08-21T02:24:54.336Z,17.42
2022-08-21T02:25:51.270Z,17.47
2022-08-21T02:26:51.251Z,17.49
2022-08-21T02:27:51.237Z,17.53
2022-08-21T02:28:51.219Z,17.52
2022-08-21T02:29:51.199Z,17.50
2022-08-21T02:30:51.182Z,17.46
2022-08-21T02:31:51.168Z,17.44
2022-08-21T02:32:51.236Z,17.47
2022-08-21T02:33:51.141Z,17.46
2022-08-21T02:34:51.114Z,17.42
2022-08-21T02:35:51.098Z,17.47
2022-08-21T02:36:59.861Z,17.46
2022-08-21T02:37:51.064Z,17.38
2022-08-21T02:38:51.055Z,17.35
2022-08-21T02:39:51.091Z,17.37
2022-08-21T02:40:51.307Z,17.28
2022-08-21T02:41:50.996Z,17.34
2022-08-21T02:42:50.978Z,17.35
2022-08-21T02:43:50.962Z,17.32
2022-08-21T02:44:50.945Z,17.34
2022-08-21T02:45:50.929Z,17.28
2022-08-21T02:46:50.909Z,17.30
2022-08-21T02:47:50.893Z,17.34
2022-08-21T02:48:50.875Z,17.35
2022-08-21T02:49:50.858Z,17.44
2022-08-21T02:50:50.842Z,17.47
2022-08-21T02:51:50.825Z,17.46
2022-08-21T02:52:51.936Z,17.53
2022-08-21T02:53:50.797Z,17.52
2022-08-21T02:54:50.780Z,17.46
2022-08-21T02:55:50.755Z,17.56
2022-08-21T02:56:50.741Z,17.53
2022-08-21T02:57:50.721Z,17.53
2022-08-21T02:58:50.711Z,17.50
2022-08-21T02:59:50.687Z,17.47
2022-08-21T03:00:50.671Z,17.44
2022-08-21T03:01:50.726Z,17.42
2022-08-21T03:02:50.745Z,17.42
2022-08-21T03:03:50.615Z,17.32
2022-08-21T03:04:50.603Z,17.35
2022-08-21T03:05:50.583Z,17.32
2022-08-21T03:06:50.566Z,17.35
2022-08-21T03:07:50.551Z,17.35
2022-08-21T03:08:50.538Z,17.41
2022-08-21T03:09:55.302Z,17.38
2022-08-21T03:10:50.498Z,17.47
2022-08-21T03:11:50.481Z,17.41
2022-08-21T03:12:50.466Z,17.47
2022-08-21T03:13:50.444Z,17.46
2022-08-21T03:14:50.428Z,17.50
2022-08-21T03:15:50.415Z,17.44
2022-08-21T03:16:50.394Z,17.42
2022-08-21T03:17:50.374Z,17.38
2022-08-21T03:18:50.365Z,17.32
2022-08-21T03:19:50.340Z,17.34
2022-08-21T03:20:50.329Z,17.28
2022-08-21T03:21:50.317Z,17.19
2022-08-21T03:22:53.008Z,17.28
2022-08-21T03:23:50.273Z,17.24
2022-08-21T03:24:50.257Z,17.19
2022-08-21T03:25:50.237Z,17.09
2022-08-21T03:26:50.220Z,17.05
2022-08-21T03:27:50.202Z,17.05
2022-08-21T03:28:50.187Z,16.98
2022-08-21T03:29:50.167Z,17.02
2022-08-21T03:30:50.154Z,16.98
2022-08-21T03:31:50.138Z,16.94
2022-08-21T03:32:50.118Z,16.98
2022-08-21T03:33:50.098Z,16.95
2022-08-21T03:34:50.086Z,16.91
2022-08-21T03:35:50.068Z,16.87
2022-08-21T03:36:50.050Z,16.89
2022-08-21T03:37:50.029Z,16.83
2022-08-21T03:38:50.013Z,16.92
2022-08-21T03:39:50.027Z,16.83
2022-08-21T03:40:49.980Z,16.92
2022-08-21T03:41:49.960Z,16.83
2022-08-21T03:42:49.950Z,16.89
2022-08-21T03:43:49.925Z,16.87
2022-08-21T03:44:49.911Z,16.87
2022-08-21T03:45:49.911Z,16.86
2022-08-21T03:46:49.875Z,16.84
2022-08-21T03:47:49.857Z,16.80
2022-08-21T03:48:49.841Z,16.87
2022-08-21T03:49:49.822Z,16.86
2022-08-21T03:50:49.804Z,16.87
2022-08-21T03:51:49.787Z,16.87
2022-08-21T03:52:49.772Z,16.84
2022-08-21T03:53:49.750Z,16.84
2022-08-21T03:54:49.736Z,16.82
2022-08-21T03:55:49.720Z,16.83
2022-08-21T03:56:49.700Z,16.89
2022-08-21T03:57:49.683Z,16.91
2022-08-21T03:58:49.665Z,16.91
2022-08-21T03:59:49.647Z,16.87
2022-08-21T04:00:49.632Z,16.89
2022-08-21T04:01:49.672Z,16.89
2022-08-21T04:02:49.594Z,16.79
2022-08-21T04:03:49.579Z,16.83
2022-08-21T04:04:49.562Z,16.68
2022-08-21T04:05:49.542Z,16.66
2022-08-21T04:06:49.527Z,16.74
2022-08-21T04:07:49.509Z,16.61
2022-08-21T04:08:49.493Z,16.55
2022-08-21T04:09:49.471Z,16.59
2022-08-21T04:10:49.458Z,16.50
2022-08-21T04:11:49.436Z,16.46
2022-08-21T04:12:49.423Z,16.47
2022-08-21T04:13:49.402Z,16.44
2022-08-21T04:14:49.389Z,16.50
2022-08-21T04:15:49.369Z,16.47
2022-08-21T04:16:49.355Z,16.54
2022-08-21T04:17:49.343Z,16.62
2022-08-21T04:18:49.320Z,16.50
2022-08-21T04:19:53.554Z,16.55
2022-08-21T04:20:50.203Z,16.64
2022-08-21T04:21:49.263Z,16.61
2022-08-21T04:22:49.258Z,16.64
2022-08-21T04:23:49.230Z,16.62
2022-08-21T04:24:49.211Z,16.65
2022-08-21T04:25:49.192Z,16.64
2022-08-21T04:26:49.178Z,16.66
2022-08-21T04:27:49.159Z,16.55
2022-08-21T04:28:49.145Z,16.65
2022-08-21T04:29:49.123Z,16.64
2022-08-21T04:30:49.106Z,16.58
2022-08-21T04:31:49.088Z,16.66
2022-08-21T04:32:49.601Z,16.58
2022-08-21T04:33:49.051Z,16.57
2022-08-21T04:34:49.035Z,16.64
2022-08-21T04:35:49.018Z,16.65
2022-08-21T04:36:49.002Z,16.64
2022-08-21T04:37:48.981Z,16.59
2022-08-21T04:38:48.965Z,16.64
2022-08-21T04:39:53.293Z,16.64
2022-08-21T04:40:48.932Z,16.61
2022-08-21T04:41:48.911Z,16.54
2022-08-21T04:42:48.895Z,16.57
2022-08-21T04:43:48.879Z,16.62
2022-08-21T04:44:48.861Z,16.55
2022-08-21T04:45:48.843Z,16.58
2022-08-21T04:46:48.829Z,16.61
2022-08-21T04:47:53.104Z,16.73
2022-08-21T04:48:48.794Z,16.80
2022-08-21T04:49:48.772Z,16.72
2022-08-21T04:50:48.756Z,16.76
2022-08-21T04:51:48.736Z,16.86
2022-08-21T04:52:48.721Z,16.89
2022-08-21T04:53:48.699Z,16.80
2022-08-21T04:54:51.944Z,16.86
2022-08-21T04:55:48.666Z,16.83
2022-08-21T04:56:48.654Z,16.89
2022-08-21T04:57:49.379Z,16.82
2022-08-21T04:58:48.613Z,16.95
2022-08-21T04:59:48.597Z,16.92
2022-08-21T05:00:48.580Z,16.92
2022-08-21T05:01:48.644Z,16.98
2022-08-21T05:02:48.729Z,16.95
2022-08-21T05:03:48.525Z,16.92
2022-08-21T05:04:48.510Z,16.95
2022-08-21T05:05:48.491Z,16.97
2022-08-21T05:06:48.474Z,16.92
2022-08-21T05:07:48.455Z,16.95
2022-08-21T05:08:48.440Z,16.97
2022-08-21T05:09:48.418Z,16.99
2022-08-21T05:10:48.403Z,16.95
2022-08-21T05:11:48.384Z,16.97
2022-08-21T05:12:48.368Z,16.97
2022-08-21T05:13:48.349Z,17.05
2022-08-21T05:14:48.331Z,17.05
2022-08-21T05:15:48.314Z,17.01
2022-08-21T05:16:48.300Z,17.04
2022-08-21T05:17:52.511Z,17.05
2022-08-21T05:18:48.263Z,17.09
2022-08-21T05:19:48.243Z,17.05
2022-08-21T05:20:48.227Z,17.01
2022-08-21T05:21:48.209Z,17.04
2022-08-21T05:22:48.190Z,17.01
2022-08-21T05:23:48.172Z,17.04
2022-08-21T05:24:48.157Z,17.14
2022-08-21T05:25:48.137Z,17.07
2022-08-21T05:26:48.121Z,17.07
2022-08-21T05:27:48.102Z,17.16
2022-08-21T05:28:48.085Z,17.10
2022-08-21T05:29:48.065Z,17.12
2022-08-21T05:30:48.050Z,17.09
2022-08-21T05:31:48.031Z,17.17
2022-08-21T05:32:48.016Z,17.16
2022-08-21T05:33:47.993Z,17.19
2022-08-21T05:34:47.979Z,17.17
2022-08-21T05:35:47.960Z,17.20
2022-08-21T05:36:47.943Z,17.16
2022-08-21T05:37:47.924Z,17.19
2022-08-21T05:38:47.908Z,17.14
2022-08-21T05:40:05.137Z,17.19
2022-08-21T05:40:47.977Z,17.20
2022-08-21T05:41:47.852Z,17.30
2022-08-21T05:42:54.634Z,17.32
2022-08-21T05:43:47.816Z,17.32
2022-08-21T05:44:47.803Z,17.35
2022-08-21T05:45:47.781Z,17.32
2022-08-21T05:46:47.767Z,17.39
2022-08-21T05:47:47.747Z,17.31
2022-08-21T05:48:47.734Z,17.30
2022-08-21T05:49:47.718Z,17.32
2022-08-21T05:50:47.720Z,17.34
2022-08-21T05:51:47.678Z,17.32
2022-08-21T05:52:47.672Z,17.32
2022-08-21T05:53:47.656Z,17.32
2022-08-21T05:54:47.623Z,17.31
2022-08-21T05:55:47.605Z,17.35
2022-08-21T05:56:47.590Z,17.38
2022-08-21T05:57:47.568Z,17.35
2022-08-21T05:58:47.552Z,17.38
2022-08-21T05:59:47.535Z,17.42
2022-08-21T06:00:47.520Z,17.47
2022-08-21T06:01:47.535Z,17.50
2022-08-21T06:02:47.484Z,17.50
2022-08-21T06:03:47.465Z,17.52
2022-08-21T06:04:47.446Z,17.54
2022-08-21T06:05:47.430Z,17.60
2022-08-21T06:06:47.409Z,17.63
2022-08-21T06:07:47.395Z,17.68
2022-08-21T06:08:47.378Z,17.68
2022-08-21T06:09:47.359Z,17.59
2022-08-21T06:10:47.342Z,17.75
2022-08-21T06:11:47.322Z,17.69
2022-08-21T06:12:47.311Z,17.82
2022-08-21T06:13:47.288Z,17.75
2022-08-21T06:14:47.272Z,17.75
2022-08-21T06:15:47.254Z,17.84
2022-08-21T06:16:47.239Z,17.76
2022-08-21T06:17:47.217Z,17.88
2022-08-21T06:18:47.202Z,17.91
2022-08-21T06:19:47.182Z,17.98
2022-08-21T06:20:47.168Z,18.05
2022-08-21T06:21:47.149Z,18.12
2022-08-21T06:22:47.135Z,18.19
2022-08-21T06:23:47.112Z,18.19
2022-08-21T06:24:47.097Z,18.31
2022-08-21T06:25:47.078Z,18.26
2022-08-21T06:26:47.062Z,18.43
2022-08-21T06:27:47.044Z,18.41
2022-08-21T06:28:47.027Z,18.37
2022-08-21T06:29:47.007Z,18.49
2022-08-21T06:30:46.991Z,18.55
2022-08-21T06:31:46.972Z,18.49
2022-08-21T06:32:46.959Z,18.57
2022-08-21T06:33:46.942Z,18.63
2022-08-21T06:34:46.921Z,18.60
2022-08-21T06:35:46.904Z,18.71
2022-08-21T06:36:46.888Z,18.73
2022-08-21T06:37:46.871Z,18.78
2022-08-21T06:38:51.799Z,18.81
2022-08-21T06:39:46.862Z,18.82
2022-08-21T06:40:47.232Z,18.85
2022-08-21T06:41:46.799Z,18.92
2022-08-21T06:42:46.787Z,18.98
2022-08-21T06:43:46.764Z,18.97
2022-08-21T06:44:46.749Z,19.07
2022-08-21T06:45:46.731Z,19.15
2022-08-21T06:46:46.712Z,19.20
2022-08-21T06:47:46.695Z,19.19
2022-08-21T06:48:46.680Z,19.24
2022-08-21T06:49:46.660Z,19.24
2022-08-21T06:50:46.644Z,19.29
2022-08-21T06:51:46.626Z,19.30
2022-08-21T06:52:46.611Z,19.29
2022-08-21T06:53:46.596Z,19.32
2022-08-21T06:54:46.575Z,19.29
2022-08-21T06:55:46.557Z,19.39
2022-08-21T06:56:46.544Z,19.39
2022-08-21T06:57:47.988Z,19.35
2022-08-21T06:58:46.507Z,19.44
2022-08-21T06:59:46.489Z,19.44
2022-08-21T07:00:46.479Z,19.47
2022-08-21T07:01:46.535Z,19.44
2022-08-21T07:02:46.450Z,19.55
2022-08-21T07:03:46.422Z,19.48
2022-08-21T07:04:46.402Z,19.55
2022-08-21T07:05:46.389Z,19.59
2022-08-21T07:06:46.367Z,19.66
2022-08-21T07:07:46.355Z,19.67
2022-08-21T07:08:46.332Z,19.67
2022-08-21T07:09:46.318Z,19.72
2022-08-21T07:10:46.300Z,19.66
2022-08-21T07:11:47.505Z,19.63
2022-08-21T07:12:46.266Z,19.71
2022-08-21T07:13:46.250Z,19.81
2022-08-21T07:14:46.231Z,19.75
2022-08-21T07:15:46.214Z,19.84
2022-08-21T07:16:46.201Z,19.82
2022-08-21T07:17:46.179Z,19.77
2022-08-21T07:18:46.164Z,19.92
2022-08-21T07:19:46.145Z,19.81
2022-08-21T07:20:46.127Z,19.90
2022-08-21T07:21:46.113Z,19.94
2022-08-21T07:22:46.095Z,19.99
2022-08-21T07:23:46.081Z,19.99
2022-08-21T07:24:46.059Z,20.03
2022-08-21T07:25:46.043Z,20.08
2022-08-21T07:26:46.027Z,20.04
2022-08-21T07:27:46.011Z,20.11
2022-08-21T07:28:45.991Z,20.03
2022-08-21T07:29:45.974Z,20.07
2022-08-21T07:30:45.958Z,20.11
2022-08-21T07:31:45.941Z,20.19
2022-08-21T07:32:45.922Z,20.19
2022-08-21T07:33:45.905Z,20.15
2022-08-21T07:34:45.888Z,20.21
2022-08-21T07:35:45.871Z,20.21
2022-08-21T07:36:45.857Z,20.22
2022-08-21T07:37:45.838Z,20.17
2022-08-21T07:38:45.828Z,20.21
2022-08-21T07:39:45.856Z,20.32
2022-08-21T07:40:45.790Z,20.30
2022-08-21T07:41:45.769Z,20.27
2022-08-21T07:42:45.751Z,20.29
2022-08-21T07:43:46.201Z,20.29
2022-08-21T07:44:45.718Z,20.37
2022-08-21T07:45:45.703Z,20.36
2022-08-21T07:46:45.684Z,20.36
2022-08-21T07:47:45.667Z,20.40
2022-08-21T07:48:45.659Z,20.42
2022-08-21T07:49:45.633Z,20.50
2022-08-21T07:50:45.616Z,20.39
2022-08-21T07:51:45.599Z,20.40
2022-08-21T07:52:45.583Z,20.46
2022-08-21T07:53:45.564Z,20.52
2022-08-21T07:54:45.549Z,20.58
2022-08-21T07:55:45.535Z,20.60
2022-08-21T07:56:45.516Z,20.63
2022-08-21T07:57:45.497Z,20.58
2022-08-21T07:58:45.481Z,20.68
2022-08-21T07:59:45.465Z,20.75
2022-08-21T08:00:45.446Z,20.78
2022-08-21T08:01:45.492Z,20.78
2022-08-21T08:02:45.412Z,20.77
2022-08-21T08:03:45.397Z,20.78
2022-08-21T08:04:51.091Z,20.88
2022-08-21T08:05:45.361Z,20.89
2022-08-21T08:06:45.344Z,20.90
2022-08-21T08:07:45.329Z,20.90
2022-08-21T08:08:45.312Z,21.01
2022-08-21T08:09:45.295Z,21.00
2022-08-21T08:10:45.275Z,21.00
2022-08-21T08:11:45.263Z,21.00
2022-08-21T08:12:45.245Z,21.01
2022-08-21T08:13:45.227Z,21.04
2022-08-21T08:14:45.209Z,21.11
2022-08-21T08:15:45.197Z,21.07
2022-08-21T08:16:45.177Z,21.05
2022-08-21T08:17:45.158Z,21.11
2022-08-21T08:18:45.142Z,21.13
2022-08-21T08:19:45.127Z,21.13
2022-08-21T08:20:45.108Z,21.17
2022-08-21T08:21:45.094Z,21.14
2022-08-21T08:22:45.073Z,21.29
2022-08-21T08:23:45.061Z,21.26
2022-08-21T08:24:45.040Z,21.22
2022-08-21T08:25:45.037Z,21.37
2022-08-21T08:26:45.060Z,21.22
2022-08-21T08:27:45.070Z,21.33
2022-08-21T08:28:44.980Z,21.38
2022-08-21T08:29:44.957Z,21.37
2022-08-21T08:30:44.942Z,21.40
2022-08-21T08:31:44.926Z,21.32
2022-08-21T08:32:44.909Z,21.43
2022-08-21T08:33:44.892Z,21.44
2022-08-21T08:34:44.874Z,21.43
2022-08-21T08:35:44.860Z,21.43
2022-08-21T08:36:44.841Z,21.50
2022-08-21T08:37:44.824Z,21.54
2022-08-21T08:38:44.810Z,21.53
2022-08-21T08:39:44.841Z,21.56
2022-08-21T08:40:44.774Z,21.48
2022-08-21T08:41:44.772Z,21.58
2022-08-21T08:42:44.742Z,21.53
2022-08-21T08:43:44.728Z,21.53
2022-08-21T08:44:44.714Z,21.63
2022-08-21T08:45:44.696Z,21.59
2022-08-21T08:46:44.673Z,21.65
2022-08-21T08:47:44.660Z,21.70
2022-08-21T08:48:48.228Z,21.65
2022-08-21T08:49:44.629Z,21.77
2022-08-21T08:50:44.609Z,21.83
2022-08-21T08:51:44.593Z,21.80
2022-08-21T08:52:44.579Z,21.80
2022-08-21T08:53:44.560Z,21.85
2022-08-21T08:54:44.543Z,21.85
2022-08-21T08:55:44.529Z,21.83
2022-08-21T08:56:44.511Z,21.89
2022-08-21T08:57:44.492Z,21.89
2022-08-21T08:58:44.475Z,21.84
2022-08-21T08:59:44.463Z,21.88
2022-08-21T09:00:44.550Z,21.88
2022-08-21T09:01:44.468Z,21.81
2022-08-21T09:02:44.411Z,21.94
2022-08-21T09:03:44.398Z,21.94
2022-08-21T09:04:44.378Z,21.94
2022-08-21T09:05:44.371Z,21.91
2022-08-21T09:06:44.349Z,21.96
2022-08-21T09:07:44.331Z,21.94
2022-08-21T09:08:44.313Z,21.88
2022-08-21T09:09:44.299Z,21.83
2022-08-21T09:10:44.278Z,21.88
2022-08-21T09:11:44.265Z,21.91
2022-08-21T09:12:44.250Z,21.91
2022-08-21T09:13:44.235Z,21.83
2022-08-21T09:14:44.214Z,21.89
2022-08-21T09:15:44.199Z,21.89
2022-08-21T09:16:44.182Z,21.91
2022-08-21T09:17:44.166Z,21.97
2022-08-21T09:18:44.150Z,21.81
2022-08-21T09:19:44.133Z,21.83
2022-08-21T09:20:44.118Z,21.92
2022-08-21T09:21:44.101Z,21.84
2022-08-21T09:22:44.086Z,21.94
2022-08-21T09:23:44.071Z,21.94
2022-08-21T09:24:44.055Z,21.94
2022-08-21T09:25:44.046Z,21.97
2022-08-21T09:26:44.019Z,22.06
2022-08-21T09:27:44.003Z,22.00
2022-08-21T09:28:44.054Z,22.06
2022-08-21T09:29:43.970Z,22.06
2022-08-21T09:30:44.066Z,22.03
2022-08-21T09:31:43.981Z,22.03
2022-08-21T09:32:43.919Z,21.96
2022-08-21T09:33:43.978Z,21.94
2022-08-21T09:34:43.886Z,21.92
2022-08-21T09:35:43.874Z,22.01
2022-08-21T09:36:43.857Z,22.03
2022-08-21T09:37:43.846Z,22.06
2022-08-21T09:38:43.826Z,22.22
2022-08-21T09:39:48.692Z,22.18
2022-08-21T09:40:43.791Z,22.15
2022-08-21T09:41:43.775Z,22.16
2022-08-21T09:42:43.759Z,22.14
2022-08-21T09:43:43.747Z,22.14
2022-08-21T09:44:43.726Z,22.01
2022-08-21T09:45:43.712Z,22.06
2022-08-21T09:46:43.695Z,22.03
2022-08-21T09:47:43.681Z,22.10
2022-08-21T09:48:43.699Z,22.15
2022-08-21T09:49:43.644Z,22.31
2022-08-21T09:50:43.631Z,22.28
2022-08-21T09:51:43.614Z,22.33
2022-08-21T09:52:43.595Z,22.36
2022-08-21T09:53:43.582Z,22.36
2022-08-21T09:54:43.564Z,22.40
2022-08-21T09:55:43.550Z,22.53
2022-08-21T09:56:43.610Z,22.58
2022-08-21T09:57:46.528Z,22.63
2022-08-21T09:58:43.501Z,22.70
2022-08-21T09:59:43.486Z,22.80
2022-08-21T10:00:43.550Z,22.81
2022-08-21T10:01:43.462Z,22.92
2022-08-21T10:02:43.439Z,23.02
2022-08-21T10:03:43.422Z,23.02
2022-08-21T10:04:43.418Z,23.20
2022-08-21T10:05:43.390Z,23.32
2022-08-21T10:06:43.375Z,23.37
2022-08-21T10:07:43.361Z,23.40
2022-08-21T10:08:43.346Z,23.40
2022-08-21T10:09:43.329Z,23.36
2022-08-21T10:10:43.312Z,23.48
2022-08-21T10:11:43.297Z,23.47
2022-08-21T10:12:43.282Z,23.58
2022-08-21T10:13:43.272Z,23.59
2022-08-21T10:14:43.251Z,23.52
2022-08-21T10:15:43.238Z,23.49
2022-08-21T10:16:43.222Z,23.40
2022-08-21T10:17:43.208Z,23.48
2022-08-21T10:18:43.187Z,23.64
2022-08-21T10:19:43.175Z,23.84
2022-08-21T10:20:43.166Z,23.95
2022-08-21T10:21:43.144Z,24.16
2022-08-21T10:22:43.128Z,24.24
2022-08-21T10:23:43.116Z,24.11
2022-08-21T10:24:43.099Z,24.19
2022-08-21T10:25:50.320Z,24.19
2022-08-21T10:26:43.120Z,24.06
2022-08-21T10:27:43.058Z,24.04
2022-08-21T10:28:43.040Z,24.07
2022-08-21T10:29:43.116Z,24.48
2022-08-21T10:30:43.011Z,24.65
2022-08-21T10:31:42.995Z,24.86
2022-08-21T10:32:42.979Z,25.25
2022-08-21T10:33:42.965Z,25.36
2022-08-21T10:34:42.952Z,25.55
2022-08-21T10:35:42.936Z,25.56
2022-08-21T10:36:42.923Z,25.54
2022-08-21T10:37:42.914Z,25.46
2022-08-21T10:39:02.685Z,25.58
2022-08-21T10:39:42.915Z,25.43
2022-08-21T10:40:42.861Z,25.26
2022-08-21T10:41:42.849Z,25.34
2022-08-21T10:42:42.832Z,25.22
2022-08-21T10:43:42.823Z,24.86
2022-08-21T10:44:42.804Z,24.84
2022-08-21T10:45:42.838Z,25.03
2022-08-21T10:46:42.774Z,25.16
2022-08-21T10:47:42.796Z,25.21
2022-08-21T10:48:42.746Z,25.19
2022-08-21T10:49:42.735Z,25.01
2022-08-21T10:50:42.717Z,24.86
2022-08-21T10:51:42.706Z,24.82
2022-08-21T10:52:44.190Z,24.68
2022-08-21T10:53:42.675Z,24.68
2022-08-21T10:54:42.666Z,24.59
2022-08-21T10:55:42.647Z,24.46
2022-08-21T10:56:44.101Z,24.44
2022-08-21T10:57:42.617Z,24.44
2022-08-21T10:58:42.605Z,24.47
2022-08-21T10:59:42.592Z,24.43
2022-08-21T11:00:42.647Z,24.56
2022-08-21T11:01:42.567Z,24.53
2022-08-21T11:02:42.544Z,24.47
2022-08-21T11:03:42.531Z,24.34
2022-08-21T11:04:49.212Z,24.26
2022-08-21T11:05:42.503Z,24.37
2022-08-21T11:06:42.487Z,24.41
2022-08-21T11:07:42.537Z,24.43
2022-08-21T11:08:43.511Z,24.56
2022-08-21T11:09:42.445Z,24.63
2022-08-21T11:10:51.330Z,24.69
2022-08-21T11:11:46.975Z,24.89
2022-08-21T11:12:42.403Z,25.14
2022-08-21T11:13:42.390Z,25.06
2022-08-21T11:14:49.834Z,24.97
2022-08-21T11:15:42.360Z,24.92
2022-08-21T11:16:42.346Z,24.75
2022-08-21T11:17:42.502Z,24.96
2022-08-21T11:18:42.328Z,25.21
2022-08-21T11:19:42.329Z,25.22
2022-08-21T11:20:42.478Z,25.40
2022-08-21T11:21:42.296Z,25.46
2022-08-21T11:22:42.259Z,25.39
2022-08-21T11:23:42.245Z,25.25
2022-08-21T11:24:42.232Z,25.12
2022-08-21T11:25:42.214Z,24.92
2022-08-21T11:26:42.203Z,24.69
2022-08-21T11:27:42.188Z,24.63
2022-08-21T11:28:42.173Z,24.43
2022-08-21T11:29:42.158Z,24.29
2022-08-21T11:30:42.159Z,24.21
2022-08-21T11:31:42.130Z,24.19
2022-08-21T11:32:42.116Z,24.19
2022-08-21T11:33:42.099Z,24.10
2022-08-21T11:34:42.086Z,24.22
2022-08-21T11:35:42.072Z,24.18
2022-08-21T11:36:46.588Z,24.16
2022-08-21T11:37:42.056Z,24.25
2022-08-21T11:38:42.032Z,24.19
2022-08-21T11:39:42.034Z,24.18
2022-08-21T11:40:42.003Z,24.21
2022-08-21T11:41:41.989Z,24.11
2022-08-21T11:42:41.971Z,24.14
2022-08-21T11:43:41.955Z,24.19
2022-08-21T11:44:41.943Z,24.14
2022-08-21T11:45:41.931Z,24.19
2022-08-21T11:46:41.913Z,24.24
2022-08-21T11:47:41.898Z,24.29
2022-08-21T11:48:41.886Z,24.32
2022-08-21T11:49:41.869Z,24.32
2022-08-21T11:50:41.855Z,24.31
2022-08-21T11:51:41.841Z,24.28
2022-08-21T11:52:41.827Z,24.29
2022-08-21T11:53:41.810Z,24.22
2022-08-21T11:54:41.798Z,24.29
2022-08-21T11:55:41.782Z,24.26
2022-08-21T11:56:41.771Z,24.31
2022-08-21T11:57:41.752Z,24.36
2022-08-21T11:58:41.742Z,24.29
2022-08-21T11:59:41.725Z,24.29
2022-08-21T12:00:41.714Z,24.22
2022-08-21T12:01:41.750Z,24.31
2022-08-21T12:02:41.679Z,24.31
2022-08-21T12:03:42.848Z,24.37
2022-08-21T12:04:41.653Z,24.36
2022-08-21T12:05:41.632Z,24.50
2022-08-21T12:06:41.619Z,24.62
2022-08-21T12:07:41.602Z,24.61
2022-08-21T12:08:41.592Z,24.66
2022-08-21T12:09:41.575Z,24.69
2022-08-21T12:10:41.582Z,24.71
2022-08-21T12:11:41.546Z,24.65
2022-08-21T12:12:41.533Z,24.68
2022-08-21T12:13:42.303Z,24.69
2022-08-21T12:14:41.504Z,24.63
2022-08-21T12:15:41.484Z,24.58
2022-08-21T12:16:41.477Z,24.55
2022-08-21T12:17:41.457Z,24.66
2022-08-21T12:18:41.445Z,24.58
2022-08-21T12:19:41.428Z,24.63
2022-08-21T12:20:50.192Z,24.68
2022-08-21T12:21:41.399Z,24.75
2022-08-21T12:22:41.988Z,24.65
2022-08-21T12:23:41.369Z,24.62
2022-08-21T12:24:41.356Z,24.63
2022-08-21T12:25:42.133Z,24.56
2022-08-21T12:26:41.327Z,24.59
2022-08-21T12:27:41.314Z,24.58
2022-08-21T12:28:41.296Z,24.59
2022-08-21T12:29:41.284Z,24.63
2022-08-21T12:30:41.270Z,24.63
2022-08-21T12:31:41.254Z,24.61
2022-08-21T12:32:41.239Z,24.63
2022-08-21T12:33:41.225Z,24.62
2022-08-21T12:34:41.210Z,24.65
2022-08-21T12:35:41.199Z,24.65
2022-08-21T12:36:41.185Z,24.65
2022-08-21T12:37:41.168Z,24.66
2022-08-21T12:38:41.150Z,24.55
2022-08-21T12:39:41.178Z,24.61
2022-08-21T12:40:41.126Z,24.55
2022-08-21T12:41:41.122Z,24.51
2022-08-21T12:42:41.092Z,24.58
2022-08-21T12:43:41.079Z,24.74
2022-08-21T12:44:41.064Z,24.61
2022-08-21T12:45:41.049Z,24.62
2022-08-21T12:46:41.034Z,24.65
2022-08-21T12:47:41.027Z,24.78
2022-08-21T12:48:41.006Z,24.93
2022-08-21T12:49:40.991Z,24.99
2022-08-21T12:50:40.975Z,25.03
2022-08-21T12:51:40.961Z,25.03
2022-08-21T12:52:40.947Z,25.01